createdAt,value
2022-12-12T00:04:45.999Z,0.50
2022-12-12T00:09:49.575Z,0.40
2022-12-12T00:14:57.410Z,0.60
2022-12-12T00:20:00.802Z,0.80
2022-12-12T00:25:06.581Z,0.60
2022-12-12T00:30:12.906Z,0.60
2022-12-12T00:35:17.073Z,0.60
2022-12-12T00:40:21.622Z,0.60
2022-12-12T00:45:26.819Z,0.70
2022-12-12T00:50:30.437Z,1.50
2022-12-12T00:55:33.958Z,1.00
2022-12-12T01:00:41.349Z,0.80
2022-12-12T01:05:45.735Z,1.20
2022-12-12T01:10:51.548Z,1.30
2022-12-12T01:15:57.191Z,1.00
2022-12-12T01:21:01.255Z,0.80
2022-12-12T01:26:06.001Z,1.10
2022-12-12T01:31:13.175Z,1.30
2022-12-12T01:36:19.030Z,0.90
2022-12-12T01:41:23.098Z,1.20
2022-12-12T01:46:44.430Z,1.00
2022-12-12T01:51:49.286Z,0.80
2022-12-12T01:56:56.379Z,1.10
2022-12-12T02:02:08.135Z,0.90
2022-12-12T02:07:11.893Z,0.40
2022-12-12T02:12:17.045Z,0.40
2022-12-12T02:17:44.114Z,0.40
2022-12-12T02:23:24.312Z,1.00
2022-12-12T02:28:54.345Z,0.90
2022-12-12T02:34:01.139Z,0.70
2022-12-12T02:39:08.525Z,0.60
2022-12-12T02:44:21.603Z,0.50
2022-12-12T02:49:29.466Z,0.50
2022-12-12T02:54:33.033Z,0.50
2022-12-12T02:59:38.327Z,0.50
2022-12-12T03:05:18.316Z,0.40
2022-12-12T03:10:32.016Z,0.40
2022-12-12T03:15:43.589Z,0.90
2022-12-12T03:20:50.985Z,0.90
2022-12-12T03:25:58.219Z,1.00
2022-12-12T03:31:05.141Z,0.80
2022-12-12T03:36:12.526Z,0.70
2022-12-12T03:41:18.023Z,0.80
2022-12-12T03:46:24.744Z,0.70
2022-12-12T03:51:30.392Z,1.30
2022-12-12T03:56:36.236Z,1.40
2022-12-12T04:01:42.621Z,1.10
2022-12-12T04:06:52.044Z,0.90
2022-12-12T04:12:17.399Z,0.80
2022-12-12T04:17:21.700Z,0.70
2022-12-12T04:22:44.490Z,0.80
2022-12-12T04:27:51.317Z,0.70
2022-12-12T04:32:58.836Z,0.60
2022-12-12T04:38:07.158Z,0.60
2022-12-12T04:43:13.710Z,0.50
2022-12-12T04:48:19.057Z,0.30
2022-12-12T04:53:31.837Z,0.30
2022-12-12T04:58:35.656Z,0.30
2022-12-12T05:03:44.905Z,0.60
2022-12-12T05:08:50.571Z,0.80
2022-12-12T05:13:54.250Z,1.00
2022-12-12T05:18:57.571Z,1.20
2022-12-12T05:24:02.874Z,1.40
2022-12-12T05:29:07.737Z,0.90
2022-12-12T05:34:11.789Z,0.90
2022-12-12T05:39:17.114Z,0.60
2022-12-12T05:44:20.731Z,0.70
2022-12-12T05:49:24.279Z,1.00
2022-12-12T05:54:29.125Z,0.90
2022-12-12T05:59:32.853Z,0.90
2022-12-12T06:04:37.660Z,0.60
2022-12-12T06:09:44.800Z,0.60
2022-12-12T06:14:48.243Z,0.40
2022-12-12T06:19:52.499Z,0.30
2022-12-12T06:25:00.463Z,0.20
2022-12-12T06:30:04.860Z,0.10
2022-12-12T06:35:08.968Z,0.30
2022-12-12T06:40:14.485Z,0.40
2022-12-12T06:45:19.100Z,0.40
2022-12-12T06:50:23.970Z,0.30
2022-12-12T06:55:30.193Z,0.50
2022-12-12T07:00:33.877Z,0.20
2022-12-12T07:05:37.320Z,0.20
2022-12-12T07:10:44.200Z,0.30
2022-12-12T07:15:49.391Z,0.60
2022-12-12T07:20:54.358Z,0.40
2022-12-12T07:25:59.103Z,0.30
2022-12-12T07:31:06.429Z,0.60
2022-12-12T07:36:10.983Z,0.20
2022-12-12T07:41:17.484Z,0.10
2022-12-12T07:46:24.456Z,0.20
2022-12-12T07:51:27.790Z,0.40
2022-12-12T07:56:32.778Z,0.40
2022-12-12T08:01:36.672Z,0.30
2022-12-12T08:06:40.419Z,0.20
2022-12-12T08:11:46.799Z,0.20
2022-12-12T08:16:51.263Z,0.40
2022-12-12T08:21:54.760Z,0.70
2022-12-12T08:27:01.956Z,0.60
2022-12-12T08:32:05.755Z,0.90
2022-12-12T08:37:09.572Z,0.90
2022-12-12T08:42:14.785Z,1.00
2022-12-12T08:47:19.933Z,1.20
2022-12-12T08:52:24.804Z,0.70
2022-12-12T08:57:30.441Z,1.00
2022-12-12T09:02:38.231Z,1.10
2022-12-12T09:07:42.612Z,1.30
2022-12-12T09:12:48.073Z,0.80
2022-12-12T09:17:53.322Z,0.70
2022-12-12T09:22:56.831Z,0.80
2022-12-12T09:28:02.777Z,1.00
2022-12-12T09:33:06.284Z,1.70
2022-12-12T09:38:14.368Z,1.70
2022-12-12T09:43:26.128Z,1.40
2022-12-12T09:48:37.935Z,2.00
2022-12-12T09:53:42.068Z,2.30
2022-12-12T09:58:55.376Z,2.40
2022-12-12T10:04:05.728Z,3.90
2022-12-12T10:09:36.341Z,3.70
2022-12-12T10:14:42.746Z,4.20
2022-12-12T10:20:26.696Z,4.10
2022-12-12T10:25:40.274Z,3.90
2022-12-12T10:31:45.109Z,4.50
2022-12-12T10:37:15.271Z,4.90
2022-12-12T10:42:37.706Z,5.50
2022-12-12T10:47:53.810Z,4.30
2022-12-12T10:52:59.062Z,5.10
2022-12-12T11:25:52.002Z,5.20
2022-12-12T11:30:57.729Z,5.70
2022-12-12T11:36:01.969Z,5.70
2022-12-12T11:41:08.513Z,6.10
2022-12-12T11:46:18.379Z,4.10
2022-12-12T11:51:33.234Z,5.10
2022-12-12T11:56:50.910Z,5.40
2022-12-12T12:02:05.763Z,5.70
2022-12-12T12:07:21.573Z,5.90
2022-12-12T12:12:29.507Z,5.60
2022-12-12T12:17:44.642Z,6.50
2022-12-12T12:22:53.404Z,6.20
2022-12-12T12:28:24.242Z,6.40
2022-12-12T12:33:35.626Z,8.10
2022-12-12T12:38:56.173Z,6.90
2022-12-12T12:44:11.252Z,6.70
2022-12-12T12:49:18.241Z,6.40
2022-12-12T12:54:26.052Z,6.30
2022-12-12T12:59:35.599Z,5.50
2022-12-12T13:04:44.000Z,5.30
2022-12-12T13:09:55.027Z,6.40
2022-12-12T13:15:02.267Z,7.40
2022-12-12T13:20:17.426Z,6.90
2022-12-12T13:25:32.942Z,6.00
2022-12-12T13:30:44.476Z,4.90
2022-12-12T13:35:51.396Z,5.70
2022-12-12T13:46:43.152Z,7.40
2022-12-12T13:51:47.285Z,7.00
2022-12-12T13:57:12.293Z,6.90
2022-12-12T14:02:27.397Z,6.30
2022-12-12T14:07:42.644Z,6.60
2022-12-12T14:12:46.802Z,5.80
2022-12-12T14:18:00.290Z,5.80
2022-12-12T14:23:12.487Z,6.00
2022-12-12T14:28:23.877Z,5.80
2022-12-12T14:34:01.663Z,5.90
2022-12-12T14:39:10.186Z,6.00
2022-12-12T14:44:36.740Z,5.40
2022-12-12T14:49:48.850Z,5.10
2022-12-12T14:54:54.584Z,4.30
2022-12-12T15:00:00.024Z,4.10
2022-12-12T15:05:07.158Z,3.70
2022-12-12T15:10:27.030Z,2.70
2022-12-12T15:15:33.738Z,2.60
2022-12-12T15:20:39.608Z,2.20
2022-12-12T15:25:44.827Z,1.90
2022-12-12T15:30:51.954Z,1.60
2022-12-12T15:36:02.123Z,1.20
2022-12-12T15:41:13.025Z,1.10
2022-12-12T15:46:18.427Z,1.00
2022-12-12T15:51:25.509Z,0.60
2022-12-12T15:56:30.375Z,0.70
2022-12-12T16:01:34.521Z,0.60
2022-12-12T16:06:45.796Z,0.40
2022-12-12T16:11:50.450Z,0.20
2022-12-12T16:16:57.201Z,0.20
2022-12-12T16:22:05.016Z,0.20
2022-12-12T16:27:11.691Z,0.00
2022-12-12T16:32:17.546Z,0.00
2022-12-12T16:37:24.882Z,-0.10
2022-12-12T16:42:28.372Z,0.10
2022-12-12T16:47:35.324Z,0.00
2022-12-12T16:52:44.210Z,0.20
2022-12-12T16:57:48.827Z,0.20
2022-12-12T17:02:55.285Z,-0.30
2022-12-12T17:08:00.738Z,-0.70
2022-12-12T17:13:06.701Z,-0.90
2022-12-12T17:18:10.888Z,-0.80
2022-12-12T17:23:30.508Z,-0.80
2022-12-12T17:28:35.555Z,-0.70
2022-12-12T17:33:49.497Z,-0.50
2022-12-12T17:39:05.275Z,-0.70
2022-12-12T17:44:09.777Z,-0.90
2022-12-12T17:49:16.516Z,-1.20
2022-12-12T17:54:21.637Z,-1.50
2022-12-12T17:59:25.420Z,-1.50
2022-12-12T18:04:29.993Z,-1.40
2022-12-12T18:09:36.301Z,-1.20
2022-12-12T18:14:40.457Z,-1.10
2022-12-12T18:19:52.346Z,-1.40
2022-12-12T18:25:00.687Z,-1.40
2022-12-12T18:30:05.795Z,-1.40
2022-12-12T18:35:11.921Z,-1.70
2022-12-12T18:40:21.025Z,-1.80
2022-12-12T18:45:25.847Z,-1.50
2022-12-12T18:50:38.747Z,-1.40
2022-12-12T18:55:45.407Z,-1.60
2022-12-12T19:01:05.635Z,-1.60
2022-12-12T19:06:16.523Z,-1.70
2022-12-12T19:11:28.822Z,-1.60
2022-12-12T19:16:34.440Z,-1.60
2022-12-12T19:21:39.503Z,-2.10
2022-12-12T19:26:46.487Z,-2.10
2022-12-12T19:31:58.403Z,-2.30
2022-12-12T19:37:03.442Z,-2.30
2022-12-12T19:42:08.555Z,-2.30
2022-12-12T19:47:13.312Z,-1.90
2022-12-12T19:52:17.092Z,-2.10
2022-12-12T19:57:30.548Z,-2.20
2022-12-12T20:02:36.664Z,-2.20
2022-12-12T20:07:42.990Z,-2.20
2022-12-12T20:12:57.958Z,-2.30
2022-12-12T20:18:03.800Z,-2.30
2022-12-12T20:23:09.222Z,-2.50
2022-12-12T20:28:14.253Z,-2.50
2022-12-12T20:33:20.149Z,-2.50
2022-12-12T20:38:27.368Z,-2.60
2022-12-12T20:43:37.761Z,-2.60
2022-12-12T20:48:45.811Z,-2.70
2022-12-12T20:53:53.233Z,-2.70
2022-12-12T20:59:06.602Z,-2.60
2022-12-12T21:04:13.749Z,-2.60
2022-12-12T21:09:23.893Z,-2.70
2022-12-12T21:14:35.147Z,-2.80
2022-12-12T21:19:44.346Z,-2.90
2022-12-12T21:24:56.204Z,-3.00
2022-12-12T21:30:02.160Z,-3.00
2022-12-12T21:35:07.558Z,-3.00
2022-12-12T21:40:13.013Z,-3.10
2022-12-12T21:45:22.015Z,-3.20
2022-12-12T21:50:31.023Z,-3.10
2022-12-12T21:55:41.463Z,-3.20
2022-12-12T22:00:50.056Z,-3.00
2022-12-12T22:05:54.525Z,-3.00
2022-12-12T22:11:01.018Z,-3.00
2022-12-12T22:16:08.240Z,-3.00
2022-12-12T22:21:17.470Z,-3.20
2022-12-12T22:26:24.268Z,-3.40
2022-12-12T22:31:30.927Z,-3.40
2022-12-12T22:36:37.270Z,-3.40
2022-12-12T22:41:41.845Z,-3.30
2022-12-12T22:46:51.501Z,-3.20
2022-12-12T22:51:55.355Z,-3.20
2022-12-12T22:57:04.500Z,-3.30
2022-12-12T23:02:12.949Z,-3.30
2022-12-12T23:07:19.207Z,-3.30
2022-12-12T23:12:23.960Z,-3.50
2022-12-12T23:17:30.671Z,-3.40
2022-12-12T23:22:35.040Z,-3.30
2022-12-12T23:27:41.326Z,-3.30
2022-12-12T23:32:46.901Z,-3.30
2022-12-12T23:37:51.131Z,-3.40
2022-12-12T23:42:55.131Z,-3.50
2022-12-12T23:48:00.479Z,-3.60
2022-12-12T23:53:10.323Z,-3.50
2022-12-12T23:58:15.422Z,-3.70
